Summerset, South Dakota
Current Conditions -  °F | °C
As of 11:58 AM on Wednesday 26 Nov 2014 (Local Time) from KRCA Reporting Station
Haze Haze  
Wind Chill: 21°   Ceiling: 1800
Heat Index: 29°   Visibility: 9mi
Dew Point: 24°   Wind: 8mph
Humidity: 80%   Direction: 190°S
Pressure: 30.21"   Gusts: NA
Location:  44.2544°N, 103.292°W
Report Text: KRCA 261858Z 19007KT 9SM BR OVC018 M02/M05 A3021 RMK AO2A SLP271 T10171047 $
Loading
Personal Weather Stations






























Interactive Weather Map New forecast layout! Learn more

10-Day Weather Forecast

Advertisements
Track Severe Weather on mobile